sensor_id;sensor_type;location;lat;lon;timestamp;temperature;humidity
22071;DHT22;11200;51.488;6.668;2023-02-28T04:47:03;-0.50;99.90
22071;DHT22;11200;51.488;6.668;2023-02-28T04:49:28;-0.40;99.90
22071;DHT22;11200;51.488;6.668;2023-02-28T04:51:54;-0.30;99.90
22071;DHT22;11200;51.488;6.668;2023-02-28T04:54:20;-0.50;99.90
22071;DHT22;11200;51.488;6.668;2023-02-28T04:56:45;-0.50;99.90
22071;DHT22;11200;51.488;6.668;2023-02-28T04:59:11;-0.50;99.90
22071;DHT22;11200;51.488;6.668;2023-02-28T05:01:37;-0.60;99.90
22071;DHT22;11200;51.488;6.668;2023-02-28T05:04:04;-0.60;99.90
22071;DHT22;11200;51.488;6.668;2023-02-28T05:06:32;-0.60;99.90
22071;DHT22;11200;51.488;6.668;2023-02-28T05:08:58;-0.30;99.90
22071;DHT22;11200;51.488;6.668;2023-02-28T05:11:27;-0.80;99.90
22071;DHT22;11200;51.488;6.668;2023-02-28T05:13:55;-0.60;99.90
22071;DHT22;11200;51.488;6.668;2023-02-28T05:16:20;-0.80;99.90
22071;DHT22;11200;51.488;6.668;2023-02-28T05:18:47;-0.70;99.90
22071;DHT22;11200;51.488;6.668;2023-02-28T05:23:52;-0.60;99.90
22071;DHT22;11200;51.488;6.668;2023-02-28T05:26:18;-0.80;99.90
22071;DHT22;11200;51.488;6.668;2023-02-28T05:28:44;-0.70;99.90
22071;DHT22;11200;51.488;6.668;2023-02-28T05:31:12;0.00;99.90
22071;DHT22;11200;51.488;6.668;2023-02-28T05:33:38;-1.00;99.90
22071;DHT22;11200;51.488;6.668;2023-02-28T05:36:04;0.50;99.90
22071;DHT22;11200;51.488;6.668;2023-02-28T05:38:30;-0.70;99.90
22071;DHT22;11200;51.488;6.668;2023-02-28T05:40:55;-0.90;99.90
22071;DHT22;11200;51.488;6.668;2023-02-28T05:43:21;-0.40;99.90
22071;DHT22;11200;51.488;6.668;2023-02-28T05:45:50;-0.70;99.90
22071;DHT22;11200;51.488;6.668;2023-02-28T05:48:16;-0.80;99.90
22071;DHT22;11200;51.488;6.668;2023-02-28T05:50:43;-0.80;99.90
22071;DHT22;11200;51.488;6.668;2023-02-28T05:53:11;-0.80;99.90
22071;DHT22;11200;51.488;6.668;2023-02-28T05:55:37;-0.80;99.90
22071;DHT22;11200;51.488;6.668;2023-02-28T05:58:03;-0.80;99.90
22071;DHT22;11200;51.488;6.668;2023-02-28T06:00:29;-0.90;99.90
22071;DHT22;11200;51.488;6.668;2023-02-28T06:02:54;-0.90;99.90
22071;DHT22;11200;51.488;6.668;2023-02-28T06:05:23;-0.90;99.90
22071;DHT22;11200;51.488;6.668;2023-02-28T06:07:49;-0.90;99.90
22071;DHT22;11200;51.488;6.668;2023-02-28T06:10:15;-0.90;99.90
22071;DHT22;11200;51.488;6.668;2023-02-28T06:12:41;-0.90;99.90
22071;DHT22;11200;51.488;6.668;2023-02-28T06:15:11;-1.00;99.90
22071;DHT22;11200;51.488;6.668;2023-02-28T06:17:37;-0.90;99.90
22071;DHT22;11200;51.488;6.668;2023-02-28T06:20:06;-1.00;99.90
22071;DHT22;11200;51.488;6.668;2023-02-28T06:22:32;-1.20;99.90
22071;DHT22;11200;51.488;6.668;2023-02-28T06:24:58;-1.00;99.90
22071;DHT22;11200;51.488;6.668;2023-02-28T06:27:23;-1.00;99.90
22071;DHT22;11200;51.488;6.668;2023-02-28T06:29:53;-1.00;99.90
22071;DHT22;11200;51.488;6.668;2023-02-28T06:32:18;-1.00;99.90
22071;DHT22;11200;51.488;6.668;2023-02-28T06:34:44;-1.00;99.90
22071;DHT22;11200;51.488;6.668;2023-02-28T06:37:09;-1.00;99.90
22071;DHT22;11200;51.488;6.668;2023-02-28T06:39:35;-1.00;99.90
22071;DHT22;11200;51.488;6.668;2023-02-28T06:42:01;-1.10;99.90
22071;DHT22;11200;51.488;6.668;2023-02-28T06:44:26;-1.10;99.90
22071;DHT22;11200;51.488;6.668;2023-02-28T06:46:52;-1.10;99.90
22071;DHT22;11200;51.488;6.668;2023-02-28T06:49:17;-1.10;99.90
22071;DHT22;11200;51.488;6.668;2023-02-28T06:51:44;-1.10;99.90
22071;DHT22;11200;51.488;6.668;2023-02-28T06:54:11;-1.10;99.90
22071;DHT22;11200;51.488;6.668;2023-02-28T06:56:37;-1.10;99.90
22071;DHT22;11200;51.488;6.668;2023-02-28T06:59:03;-1.10;99.90
22071;DHT22;11200;51.488;6.668;2023-02-28T07:01:29;-1.10;99.90
22071;DHT22;11200;51.488;6.668;2023-02-28T07:03:56;-1.10;99.90
22071;DHT22;11200;51.488;6.668;2023-02-28T07:06:23;-1.30;99.90
22071;DHT22;11200;51.488;6.668;2023-02-28T07:08:50;-1.10;99.90
22071;DHT22;11200;51.488;6.668;2023-02-28T07:11:16;-1.10;99.90
22071;DHT22;11200;51.488;6.668;2023-02-28T07:13:41;-1.10;99.90
22071;DHT22;11200;51.488;6.668;2023-02-28T07:16:12;-1.10;99.90
22071;DHT22;11200;51.488;6.668;2023-02-28T07:18:37;-1.20;99.90
22071;DHT22;11200;51.488;6.668;2023-02-28T07:21:04;-1.10;99.90
22071;DHT22;11200;51.488;6.668;2023-02-28T07:23:31;-1.10;99.90
22071;DHT22;11200;51.488;6.668;2023-02-28T07:25:57;-1.20;99.90
22071;DHT22;11200;51.488;6.668;2023-02-28T07:28:22;-1.10;99.90
22071;DHT22;11200;51.488;6.668;2023-02-28T07:30:48;-1.10;99.90
22071;DHT22;11200;51.488;6.668;2023-02-28T07:33:14;-1.10;99.90
22071;DHT22;11200;51.488;6.668;2023-02-28T07:35:40;-1.10;99.90
22071;DHT22;11200;51.488;6.668;2023-02-28T07:38:06;-1.10;99.90
22071;DHT22;11200;51.488;6.668;2023-02-28T07:40:33;-1.10;99.90
22071;DHT22;11200;51.488;6.668;2023-02-28T07:43:00;-1.10;99.90
22071;DHT22;11200;51.488;6.668;2023-02-28T07:45:26;-1.10;99.90
22071;DHT22;11200;51.488;6.668;2023-02-28T07:47:54;-1.10;99.90
22071;DHT22;11200;51.488;6.668;2023-02-28T07:50:20;-1.10;99.90
22071;DHT22;11200;51.488;6.668;2023-02-28T07:52:46;-1.50;99.90
22071;DHT22;11200;51.488;6.668;2023-02-28T07:55:12;-1.00;99.90
22071;DHT22;11200;51.488;6.668;2023-02-28T07:57:39;-1.00;99.90
22071;DHT22;11200;51.488;6.668;2023-02-28T08:00:06;-1.10;99.90
22071;DHT22;11200;51.488;6.668;2023-02-28T08:02:32;-1.00;99.90
22071;DHT22;11200;51.488;6.668;2023-02-28T08:04:58;-1.00;99.90
22071;DHT22;11200;51.488;6.668;2023-02-28T08:07:24;-1.00;99.90
22071;DHT22;11200;51.488;6.668;2023-02-28T08:09:50;-0.90;99.90
22071;DHT22;11200;51.488;6.668;2023-02-28T08:12:16;-0.90;99.90
22071;DHT22;11200;51.488;6.668;2023-02-28T08:14:41;-0.90;99.90
22071;DHT22;11200;51.488;6.668;2023-02-28T08:17:07;-0.90;99.90
22071;DHT22;11200;51.488;6.668;2023-02-28T08:19:32;-0.90;99.90
22071;DHT22;11200;51.488;6.668;2023-02-28T08:21:58;-0.90;99.90
22071;DHT22;11200;51.488;6.668;2023-02-28T08:24:24;-0.80;99.90
22071;DHT22;11200;51.488;6.668;2023-02-28T08:26:49;-0.80;99.90
22071;DHT22;11200;51.488;6.668;2023-02-28T08:29:15;-0.80;99.90
22071;DHT22;11200;51.488;6.668;2023-02-28T08:31:41;-0.70;99.90
22071;DHT22;11200;51.488;6.668;2023-02-28T08:34:08;-0.70;99.90
22071;DHT22;11200;51.488;6.668;2023-02-28T08:36:34;-0.60;99.90
22071;DHT22;11200;51.488;6.668;2023-02-28T08:39:00;-0.50;99.90
22071;DHT22;11200;51.488;6.668;2023-02-28T08:41:26;-0.50;99.90
22071;DHT22;11200;51.488;6.668;2023-02-28T08:43:51;-0.30;99.90
22071;DHT22;11200;51.488;6.668;2023-02-28T08:46:17;0.00;99.90
22071;DHT22;11200;51.488;6.668;2023-02-28T08:48:43;0.40;99.90
22071;DHT22;11200;51.488;6.668;2023-02-28T08:51:12;0.90;99.90
22071;DHT22;11200;51.488;6.668;2023-02-28T08:53:39;1.30;99.90
22071;DHT22;11200;51.488;6.668;2023-02-28T08:56:11;1.80;99.90
22071;DHT22;11200;51.488;6.668;2023-02-28T08:58:37;2.30;99.90
22071;DHT22;11200;51.488;6.668;2023-02-28T09:01:20;2.70;99.90
22071;DHT22;11200;51.488;6.668;2023-02-28T09:03:48;3.20;99.90
22071;DHT22;11200;51.488;6.668;2023-02-28T09:06:16;3.50;99.90
22071;DHT22;11200;51.488;6.668;2023-02-28T09:08:42;3.90;99.90
22071;DHT22;11200;51.488;6.668;2023-02-28T09:11:09;4.20;99.90
22071;DHT22;11200;51.488;6.668;2023-02-28T09:13:35;4.60;99.90
22071;DHT22;11200;51.488;6.668;2023-02-28T09:16:02;5.00;99.90
22071;DHT22;11200;51.488;6.668;2023-02-28T09:18:29;5.40;99.90
22071;DHT22;11200;51.488;6.668;2023-02-28T09:20:55;5.70;99.90
22071;DHT22;11200;51.488;6.668;2023-02-28T09:23:21;6.10;99.90
22071;DHT22;11200;51.488;6.668;2023-02-28T09:25:51;6.40;99.90
22071;DHT22;11200;51.488;6.668;2023-02-28T09:28:18;6.70;99.90
22071;DHT22;11200;51.488;6.668;2023-02-28T09:30:45;7.00;99.90
22071;DHT22;11200;51.488;6.668;2023-02-28T09:33:12;7.50;99.90
22071;DHT22;11200;51.488;6.668;2023-02-28T09:35:37;7.60;99.90
22071;DHT22;11200;51.488;6.668;2023-02-28T09:38:03;7.90;99.90
22071;DHT22;11200;51.488;6.668;2023-02-28T09:40:29;8.20;99.90
22071;DHT22;11200;51.488;6.668;2023-02-28T09:42:57;8.50;99.90
22071;DHT22;11200;51.488;6.668;2023-02-28T09:45:36;8.70;99.90
22071;DHT22;11200;51.488;6.668;2023-02-28T09:48:09;9.00;99.90
22071;DHT22;11200;51.488;6.668;2023-02-28T09:50:40;9.30;99.90
22071;DHT22;11200;51.488;6.668;2023-02-28T09:53:35;9.60;99.90
22071;DHT22;11200;51.488;6.668;2023-02-28T09:56:23;9.80;99.90
22071;DHT22;11200;51.488;6.668;2023-02-28T09:59:20;10.10;99.90
22071;DHT22;11200;51.488;6.668;2023-02-28T10:02:12;10.30;99.90
22071;DHT22;11200;51.488;6.668;2023-02-28T10:04:56;10.60;99.90
22071;DHT22;11200;51.488;6.668;2023-02-28T10:10:29;11.10;99.90
22071;DHT22;11200;51.488;6.668;2023-02-28T10:13:00;11.40;99.90
22071;DHT22;11200;51.488;6.668;2023-02-28T10:15:31;11.60;99.90
22071;DHT22;11200;51.488;6.668;2023-02-28T10:18:05;11.80;99.90
22071;DHT22;11200;51.488;6.668;2023-02-28T10:20:37;12.10;99.90
22071;DHT22;11200;51.488;6.668;2023-02-28T10:23:27;12.40;99.90
22071;DHT22;11200;51.488;6.668;2023-02-28T10:26:14;12.70;99.90
22071;DHT22;11200;51.488;6.668;2023-02-28T10:28:42;13.00;99.90
22071;DHT22;11200;51.488;6.668;2023-02-28T10:31:13;13.20;99.90
22071;DHT22;11200;51.488;6.668;2023-02-28T10:33:40;13.30;99.90
22071;DHT22;11200;51.488;6.668;2023-02-28T10:36:05;13.50;99.90
22071;DHT22;11200;51.488;6.668;2023-02-28T10:38:38;13.50;99.90
22071;DHT22;11200;51.488;6.668;2023-02-28T10:41:13;13.50;99.90
22071;DHT22;11200;51.488;6.668;2023-02-28T10:43:41;13.40;99.90
22071;DHT22;11200;51.488;6.668;2023-02-28T10:46:18;13.40;99.90
22071;DHT22;11200;51.488;6.668;2023-02-28T10:49:06;13.00;99.90
22071;DHT22;11200;51.488;6.668;2023-02-28T10:51:37;12.80;99.90
22071;DHT22;11200;51.488;6.668;2023-02-28T10:54:04;12.70;99.90
22071;DHT22;11200;51.488;6.668;2023-02-28T10:56:30;12.60;99.90
22071;DHT22;11200;51.488;6.668;2023-02-28T10:59:29;12.70;99.90
22071;DHT22;11200;51.488;6.668;2023-02-28T11:01:54;12.70;99.90
22071;DHT22;11200;51.488;6.668;2023-02-28T11:07:19;12.60;99.90
22071;DHT22;11200;51.488;6.668;2023-02-28T11:09:48;12.60;99.90
22071;DHT22;11200;51.488;6.668;2023-02-28T11:12:30;12.40;99.90
22071;DHT22;11200;51.488;6.668;2023-02-28T11:15:03;12.40;99.90
22071;DHT22;11200;51.488;6.668;2023-02-28T11:17:31;12.30;99.90
22071;DHT22;11200;51.488;6.668;2023-02-28T11:20:01;12.20;99.90
22071;DHT22;11200;51.488;6.668;2023-02-28T11:22:31;12.00;99.90
22071;DHT22;11200;51.488;6.668;2023-02-28T11:25:01;12.20;99.90
22071;DHT22;11200;51.488;6.668;2023-02-28T11:29:57;12.10;99.90
22071;DHT22;11200;51.488;6.668;2023-02-28T11:32:24;12.20;99.90
22071;DHT22;11200;51.488;6.668;2023-02-28T11:37:38;12.30;99.90
22071;DHT22;11200;51.488;6.668;2023-02-28T11:40:18;12.30;99.90
22071;DHT22;11200;51.488;6.668;2023-02-28T11:48:21;12.30;99.90
22071;DHT22;11200;51.488;6.668;2023-02-28T11:56:39;12.30;99.90
22071;DHT22;11200;51.488;6.668;2023-02-28T11:59:27;12.30;99.90
22071;DHT22;11200;51.488;6.668;2023-02-28T12:04:54;12.30;99.90
22071;DHT22;11200;51.488;6.668;2023-02-28T12:11:05;12.30;99.90
22071;DHT22;11200;51.488;6.668;2023-02-28T12:18:53;12.20;99.90
22071;DHT22;11200;51.488;6.668;2023-02-28T12:21:40;12.20;99.90
22071;DHT22;11200;51.488;6.668;2023-02-28T12:27:14;12.10;99.90
22071;DHT22;11200;51.488;6.668;2023-02-28T12:29:56;12.10;99.90
22071;DHT22;11200;51.488;6.668;2023-02-28T12:32:26;12.10;99.90
22071;DHT22;11200;51.488;6.668;2023-02-28T12:34:58;12.00;99.90
22071;DHT22;11200;51.488;6.668;2023-02-28T12:37:52;12.00;99.90
22071;DHT22;11200;51.488;6.668;2023-02-28T12:40:23;11.90;99.90
22071;DHT22;11200;51.488;6.668;2023-02-28T12:42:59;11.90;99.90
22071;DHT22;11200;51.488;6.668;2023-02-28T12:45:40;11.90;99.90
22071;DHT22;11200;51.488;6.668;2023-02-28T12:48:10;11.40;99.90
22071;DHT22;11200;51.488;6.668;2023-02-28T12:50:40;11.90;99.90
22071;DHT22;11200;51.488;6.668;2023-02-28T13:09:19;11.80;99.90
22071;DHT22;11200;51.488;6.668;2023-02-28T13:11:53;11.70;99.90
22071;DHT22;11200;51.488;6.668;2023-02-28T13:24:56;11.80;99.90
22071;DHT22;11200;51.488;6.668;2023-02-28T13:27:35;11.70;99.90
22071;DHT22;11200;51.488;6.668;2023-02-28T13:39:00;11.50;99.90
22071;DHT22;11200;51.488;6.668;2023-02-28T13:44:15;11.30;99.90
22071;DHT22;11200;51.488;6.668;2023-02-28T13:52:02;11.00;99.90
22071;DHT22;11200;51.488;6.668;2023-02-28T14:00:27;10.80;99.90
22071;DHT22;11200;51.488;6.668;2023-02-28T14:11:40;10.40;99.90
22071;DHT22;11200;51.488;6.668;2023-02-28T14:14:10;10.40;99.90
22071;DHT22;11200;51.488;6.668;2023-02-28T14:16:56;10.30;99.90
22071;DHT22;11200;51.488;6.668;2023-02-28T14:19:28;10.20;99.90
22071;DHT22;11200;51.488;6.668;2023-02-28T14:22:19;10.10;99.90
22071;DHT22;11200;51.488;6.668;2023-02-28T14:25:08;10.00;99.90
22071;DHT22;11200;51.488;6.668;2023-02-28T14:30:36;9.90;99.90
22071;DHT22;11200;51.488;6.668;2023-02-28T14:33:21;9.80;99.90
22071;DHT22;11200;51.488;6.668;2023-02-28T14:38:27;9.70;99.90
22071;DHT22;11200;51.488;6.668;2023-02-28T14:40:57;9.70;99.90
22071;DHT22;11200;51.488;6.668;2023-02-28T14:43:25;9.60;99.90
22071;DHT22;11200;51.488;6.668;2023-02-28T14:45:58;9.60;99.90
22071;DHT22;11200;51.488;6.668;2023-02-28T14:48:26;9.50;99.90
22071;DHT22;11200;51.488;6.668;2023-02-28T14:50:54;9.40;99.90
22071;DHT22;11200;51.488;6.668;2023-02-28T14:53:23;9.50;99.90
22071;DHT22;11200;51.488;6.668;2023-02-28T14:55:50;9.40;99.90
22071;DHT22;11200;51.488;6.668;2023-02-28T15:00:51;9.30;99.90
22071;DHT22;11200;51.488;6.668;2023-02-28T15:03:27;9.30;99.90
22071;DHT22;11200;51.488;6.668;2023-02-28T15:06:03;9.20;99.90
22071;DHT22;11200;51.488;6.668;2023-02-28T15:08:31;9.10;99.90
22071;DHT22;11200;51.488;6.668;2023-02-28T15:11:03;9.10;99.90
22071;DHT22;11200;51.488;6.668;2023-02-28T15:14:12;9.00;99.90
22071;DHT22;11200;51.488;6.668;2023-02-28T15:16:39;8.90;99.90
22071;DHT22;11200;51.488;6.668;2023-02-28T15:19:12;8.80;99.90
22071;DHT22;11200;51.488;6.668;2023-02-28T15:21:42;8.80;99.90
22071;DHT22;11200;51.488;6.668;2023-02-28T15:24:30;8.70;99.90
22071;DHT22;11200;51.488;6.668;2023-02-28T15:26:59;8.60;99.90
22071;DHT22;11200;51.488;6.668;2023-02-28T15:29:41;8.60;99.90
22071;DHT22;11200;51.488;6.668;2023-02-28T15:32:16;8.50;99.90
22071;DHT22;11200;51.488;6.668;2023-02-28T15:34:45;8.50;99.90
22071;DHT22;11200;51.488;6.668;2023-02-28T15:39:53;8.40;99.90
22071;DHT22;11200;51.488;6.668;2023-02-28T15:42:23;8.30;99.90
22071;DHT22;11200;51.488;6.668;2023-02-28T15:44:52;8.30;99.90
22071;DHT22;11200;51.488;6.668;2023-02-28T15:47:26;8.20;99.90
22071;DHT22;11200;51.488;6.668;2023-02-28T15:50:01;8.10;99.90
22071;DHT22;11200;51.488;6.668;2023-02-28T15:52:34;8.10;99.90
22071;DHT22;11200;51.488;6.668;2023-02-28T15:55:19;8.00;99.90
22071;DHT22;11200;51.488;6.668;2023-02-28T15:57:50;8.00;99.90
22071;DHT22;11200;51.488;6.668;2023-02-28T16:00:20;7.90;99.90
22071;DHT22;11200;51.488;6.668;2023-02-28T16:02:46;7.80;99.90
22071;DHT22;11200;51.488;6.668;2023-02-28T16:05:17;7.80;99.90
22071;DHT22;11200;51.488;6.668;2023-02-28T16:07:44;7.70;99.90
22071;DHT22;11200;51.488;6.668;2023-02-28T16:10:12;7.60;99.90
22071;DHT22;11200;51.488;6.668;2023-02-28T16:12:41;7.60;99.90
22071;DHT22;11200;51.488;6.668;2023-02-28T16:15:17;7.60;99.90
22071;DHT22;11200;51.488;6.668;2023-02-28T16:17:44;7.50;99.90
22071;DHT22;11200;51.488;6.668;2023-02-28T16:20:19;7.50;99.90
22071;DHT22;11200;51.488;6.668;2023-02-28T16:22:45;7.40;99.90
22071;DHT22;11200;51.488;6.668;2023-02-28T16:25:14;7.40;99.90
22071;DHT22;11200;51.488;6.668;2023-02-28T16:27:41;7.30;99.90
22071;DHT22;11200;51.488;6.668;2023-02-28T16:30:09;7.30;99.90
22071;DHT22;11200;51.488;6.668;2023-02-28T16:32:39;7.20;99.90
22071;DHT22;11200;51.488;6.668;2023-02-28T16:35:09;7.10;99.90
22071;DHT22;11200;51.488;6.668;2023-02-28T16:37:35;7.10;99.90
22071;DHT22;11200;51.488;6.668;2023-02-28T16:40:00;7.00;99.90
22071;DHT22;11200;51.488;6.668;2023-02-28T16:42:27;7.00;99.90
22071;DHT22;11200;51.488;6.668;2023-02-28T16:44:54;6.90;99.90
22071;DHT22;11200;51.488;6.668;2023-02-28T16:47:21;6.80;99.90
22071;DHT22;11200;51.488;6.668;2023-02-28T16:49:47;6.70;99.90
22071;DHT22;11200;51.488;6.668;2023-02-28T16:52:13;6.80;99.90
22071;DHT22;11200;51.488;6.668;2023-02-28T16:54:40;6.60;99.90
22071;DHT22;11200;51.488;6.668;2023-02-28T16:57:13;6.90;99.90
22071;DHT22;11200;51.488;6.668;2023-02-28T16:59:40;6.40;99.90
22071;DHT22;11200;51.488;6.668;2023-02-28T17:02:14;6.50;99.90
22071;DHT22;11200;51.488;6.668;2023-02-28T17:04:40;6.40;99.90
22071;DHT22;11200;51.488;6.668;2023-02-28T17:07:11;6.40;99.90
22071;DHT22;11200;51.488;6.668;2023-02-28T17:09:38;6.40;99.90
22071;DHT22;11200;51.488;6.668;2023-02-28T17:12:04;6.20;99.90
22071;DHT22;11200;51.488;6.668;2023-02-28T17:14:29;6.20;99.90
22071;DHT22;11200;51.488;6.668;2023-02-28T17:16:55;6.10;99.90
22071;DHT22;11200;51.488;6.668;2023-02-28T17:19:21;6.10;99.90
22071;DHT22;11200;51.488;6.668;2023-02-28T17:21:46;6.20;99.90
22071;DHT22;11200;51.488;6.668;2023-02-28T17:24:12;6.00;99.90
22071;DHT22;11200;51.488;6.668;2023-02-28T17:26:39;5.90;99.90
22071;DHT22;11200;51.488;6.668;2023-02-28T17:29:18;5.80;99.90
22071;DHT22;11200;51.488;6.668;2023-02-28T17:31:44;5.80;99.90
22071;DHT22;11200;51.488;6.668;2023-02-28T17:34:11;6.00;99.90
22071;DHT22;11200;51.488;6.668;2023-02-28T17:36:40;5.70;99.90
22071;DHT22;11200;51.488;6.668;2023-02-28T17:39:09;5.70;99.90
22071;DHT22;11200;51.488;6.668;2023-02-28T17:41:36;5.60;99.90
22071;DHT22;11200;51.488;6.668;2023-02-28T17:44:01;5.60;99.90
22071;DHT22;11200;51.488;6.668;2023-02-28T17:46:27;5.40;99.90
22071;DHT22;11200;51.488;6.668;2023-02-28T17:48:54;5.50;99.90
22071;DHT22;11200;51.488;6.668;2023-02-28T17:51:21;5.40;99.90
22071;DHT22;11200;51.488;6.668;2023-02-28T17:53:47;5.30;99.90
22071;DHT22;11200;51.488;6.668;2023-02-28T17:56:16;5.20;99.90
22071;DHT22;11200;51.488;6.668;2023-02-28T17:58:43;5.20;99.90
22071;DHT22;11200;51.488;6.668;2023-02-28T18:01:08;5.60;99.90
22071;DHT22;11200;51.488;6.668;2023-02-28T18:03:34;5.10;99.90
22071;DHT22;11200;51.488;6.668;2023-02-28T18:06:00;5.30;99.90
22071;DHT22;11200;51.488;6.668;2023-02-28T18:08:27;5.00;99.90
22071;DHT22;11200;51.488;6.668;2023-02-28T18:10:52;5.00;99.90
22071;DHT22;11200;51.488;6.668;2023-02-28T18:13:18;5.00;99.90
22071;DHT22;11200;51.488;6.668;2023-02-28T18:15:44;4.90;99.90
22071;DHT22;11200;51.488;6.668;2023-02-28T18:18:09;4.90;99.90
22071;DHT22;11200;51.488;6.668;2023-02-28T18:20:35;4.90;99.90
22071;DHT22;11200;51.488;6.668;2023-02-28T18:23:01;4.80;99.90
22071;DHT22;11200;51.488;6.668;2023-02-28T18:25:27;4.70;99.90
22071;DHT22;11200;51.488;6.668;2023-02-28T18:27:53;4.70;99.90
22071;DHT22;11200;51.488;6.668;2023-02-28T18:30:26;4.70;99.90
22071;DHT22;11200;51.488;6.668;2023-02-28T18:32:54;4.60;99.90
22071;DHT22;11200;51.488;6.668;2023-02-28T18:35:22;4.50;99.90
22071;DHT22;11200;51.488;6.668;2023-02-28T18:38:14;4.60;99.90
22071;DHT22;11200;51.488;6.668;2023-02-28T18:40:41;4.50;99.90
22071;DHT22;11200;51.488;6.668;2023-02-28T18:43:08;4.40;99.90
22071;DHT22;11200;51.488;6.668;2023-02-28T18:45:36;4.40;99.90
22071;DHT22;11200;51.488;6.668;2023-02-28T18:48:02;4.30;99.90
22071;DHT22;11200;51.488;6.668;2023-02-28T18:50:28;4.30;99.90
22071;DHT22;11200;51.488;6.668;2023-02-28T18:52:54;4.20;99.90
22071;DHT22;11200;51.488;6.668;2023-02-28T18:55:22;4.40;99.90
22071;DHT22;11200;51.488;6.668;2023-02-28T18:57:48;4.20;99.90
22071;DHT22;11200;51.488;6.668;2023-02-28T19:00:15;4.10;99.90
22071;DHT22;11200;51.488;6.668;2023-02-28T19:02:44;4.10;99.90
22071;DHT22;11200;51.488;6.668;2023-02-28T19:05:10;4.00;99.90
22071;DHT22;11200;51.488;6.668;2023-02-28T19:07:38;3.90;99.90
22071;DHT22;11200;51.488;6.668;2023-02-28T19:10:05;3.90;99.90
22071;DHT22;11200;51.488;6.668;2023-02-28T19:12:35;3.80;99.90
22071;DHT22;11200;51.488;6.668;2023-02-28T19:15:03;3.80;99.90
22071;DHT22;11200;51.488;6.668;2023-02-28T19:17:28;3.80;99.90
22071;DHT22;11200;51.488;6.668;2023-02-28T19:19:54;3.70;99.90
22071;DHT22;11200;51.488;6.668;2023-02-28T19:22:20;3.70;99.90
22071;DHT22;11200;51.488;6.668;2023-02-28T19:24:45;3.70;99.90
22071;DHT22;11200;51.488;6.668;2023-02-28T19:27:11;3.60;99.90
22071;DHT22;11200;51.488;6.668;2023-02-28T19:29:37;3.60;99.90
22071;DHT22;11200;51.488;6.668;2023-02-28T19:32:02;3.50;99.90
22071;DHT22;11200;51.488;6.668;2023-02-28T19:34:29;3.20;99.90
22071;DHT22;11200;51.488;6.668;2023-02-28T19:36:55;3.50;99.90
22071;DHT22;11200;51.488;6.668;2023-02-28T19:39:21;3.40;99.90
22071;DHT22;11200;51.488;6.668;2023-02-28T19:41:46;3.20;99.90
22071;DHT22;11200;51.488;6.668;2023-02-28T19:44:12;4.10;99.90
22071;DHT22;11200;51.488;6.668;2023-02-28T19:46:38;3.30;99.90
22071;DHT22;11200;51.488;6.668;2023-02-28T19:49:03;3.20;99.90
22071;DHT22;11200;51.488;6.668;2023-02-28T19:51:29;3.20;99.90
22071;DHT22;11200;51.488;6.668;2023-02-28T19:53:55;3.20;99.90
22071;DHT22;11200;51.488;6.668;2023-02-28T19:56:20;3.20;99.90
22071;DHT22;11200;51.488;6.668;2023-02-28T19:58:46;3.10;99.90
22071;DHT22;11200;51.488;6.668;2023-02-28T20:01:15;3.10;99.90
22071;DHT22;11200;51.488;6.668;2023-02-28T20:03:40;3.00;99.90
22071;DHT22;11200;51.488;6.668;2023-02-28T20:06:10;3.00;99.90
22071;DHT22;11200;51.488;6.668;2023-02-28T20:08:38;3.30;99.90
22071;DHT22;11200;51.488;6.668;2023-02-28T20:11:09;2.80;99.90
22071;DHT22;11200;51.488;6.668;2023-02-28T20:13:36;2.80;99.90
22071;DHT22;11200;51.488;6.668;2023-02-28T20:16:04;2.80;99.90
22071;DHT22;11200;51.488;6.668;2023-02-28T20:18:34;2.80;99.90
22071;DHT22;11200;51.488;6.668;2023-02-28T20:21:00;2.80;99.90
22071;DHT22;11200;51.488;6.668;2023-02-28T20:23:26;2.70;99.90
22071;DHT22;11200;51.488;6.668;2023-02-28T20:25:52;2.80;99.90
22071;DHT22;11200;51.488;6.668;2023-02-28T20:28:18;2.70;99.90
22071;DHT22;11200;51.488;6.668;2023-02-28T20:30:45;2.60;99.90
22071;DHT22;11200;51.488;6.668;2023-02-28T20:33:14;2.60;99.90
22071;DHT22;11200;51.488;6.668;2023-02-28T20:35:40;2.80;99.90
22071;DHT22;11200;51.488;6.668;2023-02-28T20:38:06;2.50;99.90
22071;DHT22;11200;51.488;6.668;2023-02-28T20:40:32;2.60;99.90
22071;DHT22;11200;51.488;6.668;2023-02-28T20:42:57;2.50;99.90
22071;DHT22;11200;51.488;6.668;2023-02-28T20:45:23;2.40;99.90
22071;DHT22;11200;51.488;6.668;2023-02-28T20:47:49;2.40;99.90
22071;DHT22;11200;51.488;6.668;2023-02-28T20:50:15;2.40;99.90
22071;DHT22;11200;51.488;6.668;2023-02-28T20:52:42;2.40;99.90
22071;DHT22;11200;51.488;6.668;2023-02-28T20:55:09;2.20;99.90
22071;DHT22;11200;51.488;6.668;2023-02-28T20:57:37;2.30;99.90
22071;DHT22;11200;51.488;6.668;2023-02-28T21:00:04;2.20;99.90
22071;DHT22;11200;51.488;6.668;2023-02-28T21:02:31;2.00;99.90
22071;DHT22;11200;51.488;6.668;2023-02-28T21:04:56;2.20;99.90
22071;DHT22;11200;51.488;6.668;2023-02-28T21:07:22;2.20;99.90
22071;DHT22;11200;51.488;6.668;2023-02-28T21:09:47;2.10;99.90
22071;DHT22;11200;51.488;6.668;2023-02-28T21:12:13;2.00;99.90
22071;DHT22;11200;51.488;6.668;2023-02-28T21:14:39;2.00;99.90
22071;DHT22;11200;51.488;6.668;2023-02-28T21:17:04;2.00;99.90
22071;DHT22;11200;51.488;6.668;2023-02-28T21:19:33;2.00;99.90
22071;DHT22;11200;51.488;6.668;2023-02-28T21:21:58;1.90;99.90
22071;DHT22;11200;51.488;6.668;2023-02-28T21:24:24;1.90;99.90
22071;DHT22;11200;51.488;6.668;2023-02-28T21:26:49;1.90;99.90
22071;DHT22;11200;51.488;6.668;2023-02-28T21:29:16;1.80;99.90
22071;DHT22;11200;51.488;6.668;2023-02-28T21:31:42;1.70;99.90
22071;DHT22;11200;51.488;6.668;2023-02-28T21:34:11;1.80;99.90
22071;DHT22;11200;51.488;6.668;2023-02-28T21:36:39;1.80;99.90
22071;DHT22;11200;51.488;6.668;2023-02-28T21:39:13;1.70;99.90
22071;DHT22;11200;51.488;6.668;2023-02-28T21:41:39;1.70;99.90
22071;DHT22;11200;51.488;6.668;2023-02-28T21:44:06;1.60;99.90
22071;DHT22;11200;51.488;6.668;2023-02-28T21:46:31;1.70;99.90
22071;DHT22;11200;51.488;6.668;2023-02-28T21:48:57;1.60;99.90
22071;DHT22;11200;51.488;6.668;2023-02-28T21:51:26;1.60;99.90
22071;DHT22;11200;51.488;6.668;2023-02-28T21:53:52;1.60;99.90
22071;DHT22;11200;51.488;6.668;2023-02-28T21:56:21;1.50;99.90
22071;DHT22;11200;51.488;6.668;2023-02-28T21:58:48;1.50;99.90
22071;DHT22;11200;51.488;6.668;2023-02-28T22:01:18;1.50;99.90
22071;DHT22;11200;51.488;6.668;2023-02-28T22:03:45;1.50;99.90
22071;DHT22;11200;51.488;6.668;2023-02-28T22:06:19;1.40;99.90
22071;DHT22;11200;51.488;6.668;2023-02-28T22:08:47;1.40;99.90
22071;DHT22;11200;51.488;6.668;2023-02-28T22:11:15;1.40;99.90
22071;DHT22;11200;51.488;6.668;2023-02-28T22:13:41;1.40;99.90
22071;DHT22;11200;51.488;6.668;2023-02-28T22:16:10;1.50;99.90
22071;DHT22;11200;51.488;6.668;2023-02-28T22:18:37;1.30;99.90
22071;DHT22;11200;51.488;6.668;2023-02-28T22:21:03;1.30;99.90
22071;DHT22;11200;51.488;6.668;2023-02-28T22:23:30;1.30;99.90
22071;DHT22;11200;51.488;6.668;2023-02-28T22:25:56;1.10;99.90